sensor_id;sensor_type;location;lat;lon;timestamp;temperature;humidity
23301;DHT22;11819;51.394;12.340;2022-08-19T00:00:13;21.40;90.90
23301;DHT22;11819;51.394;12.340;2022-08-19T00:02:39;21.40;90.90
23301;DHT22;11819;51.394;12.340;2022-08-19T00:05:05;21.50;90.90
23301;DHT22;11819;51.394;12.340;2022-08-19T00:07:31;21.50;90.90
23301;DHT22;11819;51.394;12.340;2022-08-19T00:09:57;21.50;90.80
23301;DHT22;11819;51.394;12.340;2022-08-19T00:12:23;21.50;90.80
23301;DHT22;11819;51.394;12.340;2022-08-19T00:14:48;21.50;90.90
23301;DHT22;11819;51.394;12.340;2022-08-19T00:17:14;21.50;90.90
23301;DHT22;11819;51.394;12.340;2022-08-19T00:19:39;21.50;90.90
23301;DHT22;11819;51.394;12.340;2022-08-19T00:22:06;21.50;90.90
23301;DHT22;11819;51.394;12.340;2022-08-19T00:24:34;21.60;90.90
23301;DHT22;11819;51.394;12.340;2022-08-19T00:27:00;21.50;90.90
23301;DHT22;11819;51.394;12.340;2022-08-19T00:29:27;21.60;90.90
23301;DHT22;11819;51.394;12.340;2022-08-19T00:31:54;21.60;90.90
23301;DHT22;11819;51.394;12.340;2022-08-19T00:34:21;21.60;90.90
23301;DHT22;11819;51.394;12.340;2022-08-19T00:36:46;21.50;90.90
23301;DHT22;11819;51.394;12.340;2022-08-19T00:39:13;21.50;91.00
23301;DHT22;11819;51.394;12.340;2022-08-19T00:41:40;21.40;91.00
23301;DHT22;11819;51.394;12.340;2022-08-19T00:44:16;21.40;91.10
23301;DHT22;11819;51.394;12.340;2022-08-19T00:46:44;21.40;91.20
23301;DHT22;11819;51.394;12.340;2022-08-19T00:51:41;21.30;91.30
23301;DHT22;11819;51.394;12.340;2022-08-19T00:54:07;21.30;91.40
23301;DHT22;11819;51.394;12.340;2022-08-19T00:56:34;21.20;91.60
23301;DHT22;11819;51.394;12.340;2022-08-19T00:59:01;21.10;91.80
23301;DHT22;11819;51.394;12.340;2022-08-19T01:01:27;21.10;91.90
23301;DHT22;11819;51.394;12.340;2022-08-19T01:03:53;21.10;92.00
23301;DHT22;11819;51.394;12.340;2022-08-19T01:06:19;21.10;92.20
23301;DHT22;11819;51.394;12.340;2022-08-19T01:08:44;21.00;92.30
23301;DHT22;11819;51.394;12.340;2022-08-19T01:11:10;21.00;92.40
23301;DHT22;11819;51.394;12.340;2022-08-19T01:13:36;21.10;92.50
23301;DHT22;11819;51.394;12.340;2022-08-19T01:16:08;21.10;92.40
23301;DHT22;11819;51.394;12.340;2022-08-19T01:18:41;21.10;92.50
23301;DHT22;11819;51.394;12.340;2022-08-19T01:21:16;21.10;92.50
23301;DHT22;11819;51.394;12.340;2022-08-19T01:23:44;21.10;92.50
23301;DHT22;11819;51.394;12.340;2022-08-19T01:26:14;21.10;92.60
23301;DHT22;11819;51.394;12.340;2022-08-19T01:28:41;21.10;92.60
23301;DHT22;11819;51.394;12.340;2022-08-19T01:31:10;21.10;92.60
23301;DHT22;11819;51.394;12.340;2022-08-19T01:33:37;21.00;92.60
23301;DHT22;11819;51.394;12.340;2022-08-19T01:36:49;21.00;92.70
23301;DHT22;11819;51.394;12.340;2022-08-19T01:38:51;21.00;92.80
23301;DHT22;11819;51.394;12.340;2022-08-19T01:41:17;21.00;92.80
23301;DHT22;11819;51.394;12.340;2022-08-19T01:43:44;21.00;92.90
23301;DHT22;11819;51.394;12.340;2022-08-19T01:46:09;21.10;92.90
23301;DHT22;11819;51.394;12.340;2022-08-19T01:48:41;21.10;92.90
23301;DHT22;11819;51.394;12.340;2022-08-19T01:51:08;21.10;92.90
23301;DHT22;11819;51.394;12.340;2022-08-19T01:53:34;21.10;92.90
23301;DHT22;11819;51.394;12.340;2022-08-19T01:56:00;21.10;92.90
23301;DHT22;11819;51.394;12.340;2022-08-19T01:58:30;21.10;92.90
23301;DHT22;11819;51.394;12.340;2022-08-19T02:00:58;21.10;92.90
23301;DHT22;11819;51.394;12.340;2022-08-19T02:03:24;21.10;92.90
23301;DHT22;11819;51.394;12.340;2022-08-19T02:05:55;21.20;92.90
23301;DHT22;11819;51.394;12.340;2022-08-19T02:08:21;21.10;92.90
23301;DHT22;11819;51.394;12.340;2022-08-19T02:10:47;21.20;92.90
23301;DHT22;11819;51.394;12.340;2022-08-19T02:13:13;21.10;92.90
23301;DHT22;11819;51.394;12.340;2022-08-19T02:15:39;21.10;93.00
23301;DHT22;11819;51.394;12.340;2022-08-19T02:18:05;21.10;93.00
23301;DHT22;11819;51.394;12.340;2022-08-19T02:20:31;21.00;93.00
23301;DHT22;11819;51.394;12.340;2022-08-19T02:22:57;21.00;93.10
23301;DHT22;11819;51.394;12.340;2022-08-19T02:25:22;21.00;93.20
23301;DHT22;11819;51.394;12.340;2022-08-19T02:27:48;20.90;93.30
23301;DHT22;11819;51.394;12.340;2022-08-19T02:30:15;20.90;93.40
23301;DHT22;11819;51.394;12.340;2022-08-19T02:32:41;20.90;93.40
23301;DHT22;11819;51.394;12.340;2022-08-19T02:35:08;20.90;93.50
23301;DHT22;11819;51.394;12.340;2022-08-19T02:37:34;20.90;93.50
23301;DHT22;11819;51.394;12.340;2022-08-19T02:40:18;20.90;93.50
23301;DHT22;11819;51.394;12.340;2022-08-19T02:42:44;21.00;93.50
23301;DHT22;11819;51.394;12.340;2022-08-19T02:45:12;21.00;93.50
23301;DHT22;11819;51.394;12.340;2022-08-19T02:47:38;21.00;93.90
23301;DHT22;11819;51.394;12.340;2022-08-19T02:50:05;21.00;93.50
23301;DHT22;11819;51.394;12.340;2022-08-19T02:52:33;21.10;93.50
23301;DHT22;11819;51.394;12.340;2022-08-19T02:54:59;21.10;93.50
23301;DHT22;11819;51.394;12.340;2022-08-19T02:57:25;21.10;93.50
23301;DHT22;11819;51.394;12.340;2022-08-19T02:59:51;21.10;93.50
23301;DHT22;11819;51.394;12.340;2022-08-19T03:02:17;21.10;93.40
23301;DHT22;11819;51.394;12.340;2022-08-19T03:04:43;21.20;93.40
23301;DHT22;11819;51.394;12.340;2022-08-19T03:07:09;21.20;93.40
23301;DHT22;11819;51.394;12.340;2022-08-19T03:09:38;21.20;93.40
23301;DHT22;11819;51.394;12.340;2022-08-19T03:12:04;21.20;93.40
23301;DHT22;11819;51.394;12.340;2022-08-19T03:14:31;21.20;93.40
23301;DHT22;11819;51.394;12.340;2022-08-19T03:16:57;21.20;93.40
23301;DHT22;11819;51.394;12.340;2022-08-19T03:19:23;21.20;93.40
23301;DHT22;11819;51.394;12.340;2022-08-19T03:21:49;21.20;93.40
23301;DHT22;11819;51.394;12.340;2022-08-19T03:24:15;21.20;93.30
23301;DHT22;11819;51.394;12.340;2022-08-19T03:26:52;21.20;93.30
23301;DHT22;11819;51.394;12.340;2022-08-19T03:29:19;21.20;93.30
23301;DHT22;11819;51.394;12.340;2022-08-19T03:31:45;21.20;93.20
23301;DHT22;11819;51.394;12.340;2022-08-19T03:34:20;21.30;93.20
23301;DHT22;11819;51.394;12.340;2022-08-19T03:36:46;21.20;93.20
23301;DHT22;11819;51.394;12.340;2022-08-19T03:39:12;21.30;93.20
23301;DHT22;11819;51.394;12.340;2022-08-19T03:41:40;21.30;93.10
23301;DHT22;11819;51.394;12.340;2022-08-19T03:44:06;21.30;93.10
23301;DHT22;11819;51.394;12.340;2022-08-19T03:46:34;21.30;93.10
23301;DHT22;11819;51.394;12.340;2022-08-19T03:49:02;21.30;93.00
23301;DHT22;11819;51.394;12.340;2022-08-19T03:51:35;21.30;93.00
23301;DHT22;11819;51.394;12.340;2022-08-19T03:54:03;21.30;93.00
23301;DHT22;11819;51.394;12.340;2022-08-19T03:56:29;21.30;93.00
23301;DHT22;11819;51.394;12.340;2022-08-19T03:58:57;21.30;93.00
23301;DHT22;11819;51.394;12.340;2022-08-19T04:01:24;21.30;92.90
23301;DHT22;11819;51.394;12.340;2022-08-19T04:03:52;21.30;93.00
23301;DHT22;11819;51.394;12.340;2022-08-19T04:06:24;21.20;92.90
23301;DHT22;11819;51.394;12.340;2022-08-19T04:08:52;21.20;92.90
23301;DHT22;11819;51.394;12.340;2022-08-19T04:11:22;21.20;92.90
23301;DHT22;11819;51.394;12.340;2022-08-19T04:13:49;21.10;92.90
23301;DHT22;11819;51.394;12.340;2022-08-19T04:16:14;21.10;93.00
23301;DHT22;11819;51.394;12.340;2022-08-19T04:18:40;21.00;93.00
23301;DHT22;11819;51.394;12.340;2022-08-19T04:21:08;21.00;93.10
23301;DHT22;11819;51.394;12.340;2022-08-19T04:23:35;21.00;93.10
23301;DHT22;11819;51.394;12.340;2022-08-19T04:26:01;21.00;93.20
23301;DHT22;11819;51.394;12.340;2022-08-19T04:28:27;21.00;93.20
23301;DHT22;11819;51.394;12.340;2022-08-19T04:30:55;21.00;93.30
23301;DHT22;11819;51.394;12.340;2022-08-19T04:33:23;21.00;93.30
23301;DHT22;11819;51.394;12.340;2022-08-19T04:35:51;20.90;93.30
23301;DHT22;11819;51.394;12.340;2022-08-19T04:38:19;20.90;93.30
23301;DHT22;11819;51.394;12.340;2022-08-19T04:40:47;20.90;93.30
23301;DHT22;11819;51.394;12.340;2022-08-19T04:43:33;20.90;93.40
23301;DHT22;11819;51.394;12.340;2022-08-19T04:46:06;20.90;93.50
23301;DHT22;11819;51.394;12.340;2022-08-19T04:48:31;20.90;93.50
23301;DHT22;11819;51.394;12.340;2022-08-19T04:50:58;20.90;93.60
23301;DHT22;11819;51.394;12.340;2022-08-19T04:53:31;20.90;93.60
23301;DHT22;11819;51.394;12.340;2022-08-19T04:55:58;20.90;94.00
23301;DHT22;11819;51.394;12.340;2022-08-19T04:58:26;20.90;93.60
23301;DHT22;11819;51.394;12.340;2022-08-19T05:00:52;20.90;93.70
23301;DHT22;11819;51.394;12.340;2022-08-19T05:03:18;20.90;93.70
23301;DHT22;11819;51.394;12.340;2022-08-19T05:05:45;20.80;93.70
23301;DHT22;11819;51.394;12.340;2022-08-19T05:08:16;20.80;93.90
23301;DHT22;11819;51.394;12.340;2022-08-19T05:10:49;20.80;93.90
23301;DHT22;11819;51.394;12.340;2022-08-19T05:13:17;20.70;94.10
23301;DHT22;11819;51.394;12.340;2022-08-19T05:15:44;20.80;94.10
23301;DHT22;11819;51.394;12.340;2022-08-19T05:18:10;20.80;94.10
23301;DHT22;11819;51.394;12.340;2022-08-19T05:20:54;20.80;94.50
23301;DHT22;11819;51.394;12.340;2022-08-19T05:23:38;20.90;94.10
23301;DHT22;11819;51.394;12.340;2022-08-19T05:26:04;20.90;94.10
23301;DHT22;11819;51.394;12.340;2022-08-19T05:28:30;20.90;94.10
23301;DHT22;11819;51.394;12.340;2022-08-19T05:30:55;20.90;94.10
23301;DHT22;11819;51.394;12.340;2022-08-19T05:33:22;20.90;94.10
23301;DHT22;11819;51.394;12.340;2022-08-19T05:35:48;20.90;94.00
23301;DHT22;11819;51.394;12.340;2022-08-19T05:38:18;20.90;94.00
23301;DHT22;11819;51.394;12.340;2022-08-19T05:40:43;20.80;94.00
23301;DHT22;11819;51.394;12.340;2022-08-19T05:43:12;20.80;94.10
23301;DHT22;11819;51.394;12.340;2022-08-19T05:45:41;20.70;94.20
23301;DHT22;11819;51.394;12.340;2022-08-19T05:48:08;20.80;94.30
23301;DHT22;11819;51.394;12.340;2022-08-19T05:50:37;20.80;94.30
23301;DHT22;11819;51.394;12.340;2022-08-19T05:53:03;20.80;94.30
23301;DHT22;11819;51.394;12.340;2022-08-19T05:55:28;20.80;94.40
23301;DHT22;11819;51.394;12.340;2022-08-19T05:57:54;20.80;94.40
23301;DHT22;11819;51.394;12.340;2022-08-19T06:00:20;20.70;94.30
23301;DHT22;11819;51.394;12.340;2022-08-19T06:05:11;20.70;94.60
23301;DHT22;11819;51.394;12.340;2022-08-19T06:07:38;20.70;94.40
23301;DHT22;11819;51.394;12.340;2022-08-19T06:10:05;20.70;94.40
23301;DHT22;11819;51.394;12.340;2022-08-19T06:12:33;20.70;94.50
23301;DHT22;11819;51.394;12.340;2022-08-19T06:15:06;20.70;94.50
23301;DHT22;11819;51.394;12.340;2022-08-19T06:17:32;20.70;94.50
23301;DHT22;11819;51.394;12.340;2022-08-19T06:19:59;20.80;94.50
23301;DHT22;11819;51.394;12.340;2022-08-19T06:22:26;20.70;94.50
23301;DHT22;11819;51.394;12.340;2022-08-19T06:24:52;20.70;94.40
23301;DHT22;11819;51.394;12.340;2022-08-19T06:27:19;20.70;94.90
23301;DHT22;11819;51.394;12.340;2022-08-19T06:29:45;20.70;94.50
23301;DHT22;11819;51.394;12.340;2022-08-19T06:32:13;20.80;94.60
23301;DHT22;11819;51.394;12.340;2022-08-19T06:34:40;20.80;94.50
23301;DHT22;11819;51.394;12.340;2022-08-19T06:37:06;20.80;94.80
23301;DHT22;11819;51.394;12.340;2022-08-19T06:39:35;20.80;94.50
23301;DHT22;11819;51.394;12.340;2022-08-19T06:42:02;20.90;94.40
23301;DHT22;11819;51.394;12.340;2022-08-19T06:44:33;20.90;94.30
23301;DHT22;11819;51.394;12.340;2022-08-19T06:47:04;20.80;94.20
23301;DHT22;11819;51.394;12.340;2022-08-19T06:49:31;20.80;94.20
23301;DHT22;11819;51.394;12.340;2022-08-19T06:51:57;20.80;94.20
23301;DHT22;11819;51.394;12.340;2022-08-19T06:54:24;20.80;94.20
23301;DHT22;11819;51.394;12.340;2022-08-19T06:56:50;20.80;94.20
23301;DHT22;11819;51.394;12.340;2022-08-19T06:59:18;20.80;94.10
23301;DHT22;11819;51.394;12.340;2022-08-19T07:01:47;20.80;94.10
23301;DHT22;11819;51.394;12.340;2022-08-19T07:04:15;20.80;94.10
23301;DHT22;11819;51.394;12.340;2022-08-19T07:06:41;20.80;93.90
23301;DHT22;11819;51.394;12.340;2022-08-19T07:09:09;20.70;93.90
23301;DHT22;11819;51.394;12.340;2022-08-19T07:11:34;20.70;93.90
23301;DHT22;11819;51.394;12.340;2022-08-19T07:14:01;20.70;94.00
23301;DHT22;11819;51.394;12.340;2022-08-19T07:16:27;20.60;93.90
23301;DHT22;11819;51.394;12.340;2022-08-19T07:18:53;20.60;93.90
23301;DHT22;11819;51.394;12.340;2022-08-19T07:21:22;20.60;93.90
23301;DHT22;11819;51.394;12.340;2022-08-19T07:23:50;20.60;93.90
23301;DHT22;11819;51.394;12.340;2022-08-19T07:26:20;20.50;93.90
23301;DHT22;11819;51.394;12.340;2022-08-19T07:28:47;20.50;93.90
23301;DHT22;11819;51.394;12.340;2022-08-19T07:31:16;20.50;93.90
23301;DHT22;11819;51.394;12.340;2022-08-19T07:33:44;20.50;94.00
23301;DHT22;11819;51.394;12.340;2022-08-19T07:36:11;20.50;94.00
23301;DHT22;11819;51.394;12.340;2022-08-19T07:38:39;20.50;93.90
23301;DHT22;11819;51.394;12.340;2022-08-19T07:41:06;20.50;93.90
23301;DHT22;11819;51.394;12.340;2022-08-19T07:43:32;20.50;93.90
23301;DHT22;11819;51.394;12.340;2022-08-19T07:45:57;20.50;93.90
23301;DHT22;11819;51.394;12.340;2022-08-19T07:48:25;20.40;93.90
23301;DHT22;11819;51.394;12.340;2022-08-19T07:50:53;20.40;94.00
23301;DHT22;11819;51.394;12.340;2022-08-19T07:53:21;20.40;94.00
23301;DHT22;11819;51.394;12.340;2022-08-19T07:55:47;20.40;93.90
23301;DHT22;11819;51.394;12.340;2022-08-19T07:58:14;20.50;94.00
23301;DHT22;11819;51.394;12.340;2022-08-19T08:00:42;20.50;94.00
23301;DHT22;11819;51.394;12.340;2022-08-19T08:03:08;20.50;94.00
23301;DHT22;11819;51.394;12.340;2022-08-19T08:05:34;20.60;94.10
23301;DHT22;11819;51.394;12.340;2022-08-19T08:08:18;20.60;94.00
23301;DHT22;11819;51.394;12.340;2022-08-19T08:11:04;20.60;94.00
23301;DHT22;11819;51.394;12.340;2022-08-19T08:13:30;20.70;93.90
23301;DHT22;11819;51.394;12.340;2022-08-19T08:15:56;20.70;93.80
23301;DHT22;11819;51.394;12.340;2022-08-19T08:18:23;20.70;93.80
23301;DHT22;11819;51.394;12.340;2022-08-19T08:20:49;20.70;93.70
23301;DHT22;11819;51.394;12.340;2022-08-19T08:23:15;20.70;93.80
23301;DHT22;11819;51.394;12.340;2022-08-19T08:25:57;20.80;93.90
23301;DHT22;11819;51.394;12.340;2022-08-19T08:28:24;20.70;93.70
23301;DHT22;11819;51.394;12.340;2022-08-19T08:30:50;20.80;93.70
23301;DHT22;11819;51.394;12.340;2022-08-19T08:33:20;20.80;93.60
23301;DHT22;11819;51.394;12.340;2022-08-19T08:35:47;20.80;93.60
23301;DHT22;11819;51.394;12.340;2022-08-19T08:38:13;20.80;93.60
23301;DHT22;11819;51.394;12.340;2022-08-19T08:40:50;20.80;93.60
23301;DHT22;11819;51.394;12.340;2022-08-19T08:43:35;20.70;93.60
23301;DHT22;11819;51.394;12.340;2022-08-19T08:46:15;20.70;93.50
23301;DHT22;11819;51.394;12.340;2022-08-19T08:48:57;20.70;93.50
23301;DHT22;11819;51.394;12.340;2022-08-19T08:51:33;20.60;93.50
23301;DHT22;11819;51.394;12.340;2022-08-19T08:54:00;20.60;93.60
23301;DHT22;11819;51.394;12.340;2022-08-19T08:56:26;20.60;93.60
23301;DHT22;11819;51.394;12.340;2022-08-19T08:59:02;20.60;93.70
23301;DHT22;11819;51.394;12.340;2022-08-19T09:01:32;20.60;93.60
23301;DHT22;11819;51.394;12.340;2022-08-19T09:03:57;20.60;93.60
23301;DHT22;11819;51.394;12.340;2022-08-19T09:09:14;20.60;93.70
23301;DHT22;11819;51.394;12.340;2022-08-19T09:12:00;20.50;93.60
23301;DHT22;11819;51.394;12.340;2022-08-19T09:14:38;20.60;93.70
23301;DHT22;11819;51.394;12.340;2022-08-19T09:17:08;20.60;93.70
23301;DHT22;11819;51.394;12.340;2022-08-19T09:19:36;20.60;93.60
23301;DHT22;11819;51.394;12.340;2022-08-19T09:22:11;20.60;93.60
23301;DHT22;11819;51.394;12.340;2022-08-19T09:24:37;20.60;93.40
23301;DHT22;11819;51.394;12.340;2022-08-19T09:27:03;20.60;93.50
23301;DHT22;11819;51.394;12.340;2022-08-19T09:29:29;20.70;93.50
23301;DHT22;11819;51.394;12.340;2022-08-19T09:31:55;20.70;93.50
23301;DHT22;11819;51.394;12.340;2022-08-19T09:34:21;20.70;93.50
23301;DHT22;11819;51.394;12.340;2022-08-19T09:36:47;20.70;93.30
23301;DHT22;11819;51.394;12.340;2022-08-19T09:39:18;20.70;93.20
23301;DHT22;11819;51.394;12.340;2022-08-19T09:41:44;20.80;93.20
23301;DHT22;11819;51.394;12.340;2022-08-19T09:44:09;20.80;93.10
23301;DHT22;11819;51.394;12.340;2022-08-19T09:46:36;20.80;92.90
23301;DHT22;11819;51.394;12.340;2022-08-19T09:49:02;20.70;92.80
23301;DHT22;11819;51.394;12.340;2022-08-19T09:51:30;20.70;92.80
23301;DHT22;11819;51.394;12.340;2022-08-19T09:54:00;20.70;92.80
23301;DHT22;11819;51.394;12.340;2022-08-19T09:56:26;20.70;92.80
23301;DHT22;11819;51.394;12.340;2022-08-19T09:58:52;20.70;92.80
23301;DHT22;11819;51.394;12.340;2022-08-19T10:01:24;20.70;92.80
23301;DHT22;11819;51.394;12.340;2022-08-19T10:03:53;20.70;92.80
23301;DHT22;11819;51.394;12.340;2022-08-19T10:06:20;20.80;92.70
23301;DHT22;11819;51.394;12.340;2022-08-19T10:08:46;20.80;92.50
23301;DHT22;11819;51.394;12.340;2022-08-19T10:11:12;20.80;92.50
23301;DHT22;11819;51.394;12.340;2022-08-19T10:13:41;20.80;92.30
23301;DHT22;11819;51.394;12.340;2022-08-19T10:16:11;20.80;92.10
23301;DHT22;11819;51.394;12.340;2022-08-19T10:18:39;20.80;92.10
23301;DHT22;11819;51.394;12.340;2022-08-19T10:21:17;20.80;92.20
23301;DHT22;11819;51.394;12.340;2022-08-19T10:23:45;20.80;92.10
23301;DHT22;11819;51.394;12.340;2022-08-19T10:26:18;20.90;92.10
23301;DHT22;11819;51.394;12.340;2022-08-19T10:28:43;20.90;92.00
23301;DHT22;11819;51.394;12.340;2022-08-19T10:31:18;21.00;92.00
23301;DHT22;11819;51.394;12.340;2022-08-19T10:33:45;21.10;91.90
23301;DHT22;11819;51.394;12.340;2022-08-19T10:36:14;21.20;91.70
23301;DHT22;11819;51.394;12.340;2022-08-19T10:38:41;21.30;91.40
23301;DHT22;11819;51.394;12.340;2022-08-19T10:41:13;21.30;91.30
23301;DHT22;11819;51.394;12.340;2022-08-19T10:43:40;21.30;90.90
23301;DHT22;11819;51.394;12.340;2022-08-19T10:46:11;21.40;90.80
23301;DHT22;11819;51.394;12.340;2022-08-19T10:48:37;21.40;90.40
23301;DHT22;11819;51.394;12.340;2022-08-19T10:51:03;21.40;90.40
23301;DHT22;11819;51.394;12.340;2022-08-19T10:53:48;21.40;90.20
23301;DHT22;11819;51.394;12.340;2022-08-19T10:56:14;21.40;90.00
23301;DHT22;11819;51.394;12.340;2022-08-19T10:58:58;21.40;90.00
23301;DHT22;11819;51.394;12.340;2022-08-19T11:01:25;21.30;89.80
23301;DHT22;11819;51.394;12.340;2022-08-19T11:03:51;21.30;89.70
23301;DHT22;11819;51.394;12.340;2022-08-19T11:06:17;21.30;89.70
23301;DHT22;11819;51.394;12.340;2022-08-19T11:08:42;21.30;89.70
23301;DHT22;11819;51.394;12.340;2022-08-19T11:11:12;21.30;89.50
23301;DHT22;11819;51.394;12.340;2022-08-19T11:13:39;21.20;89.40
23301;DHT22;11819;51.394;12.340;2022-08-19T11:16:11;21.20;89.40
23301;DHT22;11819;51.394;12.340;2022-08-19T11:18:41;21.20;89.50
23301;DHT22;11819;51.394;12.340;2022-08-19T11:23:42;21.30;89.40
23301;DHT22;11819;51.394;12.340;2022-08-19T11:26:08;21.30;89.20
23301;DHT22;11819;51.394;12.340;2022-08-19T11:28:34;21.30;88.50
23301;DHT22;11819;51.394;12.340;2022-08-19T11:31:00;21.40;88.20
23301;DHT22;11819;51.394;12.340;2022-08-19T11:33:26;21.40;87.90
23301;DHT22;11819;51.394;12.340;2022-08-19T11:35:52;21.40;87.60
23301;DHT22;11819;51.394;12.340;2022-08-19T11:38:18;21.40;87.50
23301;DHT22;11819;51.394;12.340;2022-08-19T11:40:44;21.50;87.30
23301;DHT22;11819;51.394;12.340;2022-08-19T11:43:10;21.50;87.00
23301;DHT22;11819;51.394;12.340;2022-08-19T11:45:35;21.50;86.80
23301;DHT22;11819;51.394;12.340;2022-08-19T11:48:01;21.50;86.60
23301;DHT22;11819;51.394;12.340;2022-08-19T11:50:27;21.50;86.00
23301;DHT22;11819;51.394;12.340;2022-08-19T11:52:54;21.50;86.90
23301;DHT22;11819;51.394;12.340;2022-08-19T11:55:20;21.50;85.80
23301;DHT22;11819;51.394;12.340;2022-08-19T11:57:45;21.50;86.00
23301;DHT22;11819;51.394;12.340;2022-08-19T12:00:12;21.60;86.20
23301;DHT22;11819;51.394;12.340;2022-08-19T12:02:39;21.60;85.80
23301;DHT22;11819;51.394;12.340;2022-08-19T12:05:05;21.70;85.60
23301;DHT22;11819;51.394;12.340;2022-08-19T12:07:31;21.80;85.30
23301;DHT22;11819;51.394;12.340;2022-08-19T12:09:59;21.80;84.90
23301;DHT22;11819;51.394;12.340;2022-08-19T12:12:26;21.80;84.40
23301;DHT22;11819;51.394;12.340;2022-08-19T12:14:52;21.80;84.30
23301;DHT22;11819;51.394;12.340;2022-08-19T12:17:28;21.90;84.40
23301;DHT22;11819;51.394;12.340;2022-08-19T12:19:54;22.00;84.50
23301;DHT22;11819;51.394;12.340;2022-08-19T12:22:20;22.10;84.30
23301;DHT22;11819;51.394;12.340;2022-08-19T12:24:46;22.20;84.40
23301;DHT22;11819;51.394;12.340;2022-08-19T12:27:13;22.30;83.60
23301;DHT22;11819;51.394;12.340;2022-08-19T12:29:38;22.40;83.20
23301;DHT22;11819;51.394;12.340;2022-08-19T12:32:05;22.50;83.30
23301;DHT22;11819;51.394;12.340;2022-08-19T12:34:31;22.70;83.40
23301;DHT22;11819;51.394;12.340;2022-08-19T12:36:58;22.90;83.70
23301;DHT22;11819;51.394;12.340;2022-08-19T12:39:26;23.10;82.60
23301;DHT22;11819;51.394;12.340;2022-08-19T12:41:51;23.20;81.70
23301;DHT22;11819;51.394;12.340;2022-08-19T12:44:17;23.30;81.10
23301;DHT22;11819;51.394;12.340;2022-08-19T12:46:43;23.40;80.60
23301;DHT22;11819;51.394;12.340;2022-08-19T12:49:08;23.40;79.80
23301;DHT22;11819;51.394;12.340;2022-08-19T12:51:35;23.40;79.20
23301;DHT22;11819;51.394;12.340;2022-08-19T12:54:01;23.30;78.60
23301;DHT22;11819;51.394;12.340;2022-08-19T12:56:27;23.30;78.90
23301;DHT22;11819;51.394;12.340;2022-08-19T12:58:52;23.40;79.40
23301;DHT22;11819;51.394;12.340;2022-08-19T13:01:18;23.50;78.70
23301;DHT22;11819;51.394;12.340;2022-08-19T13:03:45;23.50;78.10
23301;DHT22;11819;51.394;12.340;2022-08-19T13:06:11;23.50;78.10
23301;DHT22;11819;51.394;12.340;2022-08-19T13:08:37;23.60;78.50
23301;DHT22;11819;51.394;12.340;2022-08-19T13:11:13;23.70;78.90
23301;DHT22;11819;51.394;12.340;2022-08-19T13:13:41;23.90;78.20
23301;DHT22;11819;51.394;12.340;2022-08-19T13:16:08;24.00;77.70
23301;DHT22;11819;51.394;12.340;2022-08-19T13:18:35;24.00;76.70
23301;DHT22;11819;51.394;12.340;2022-08-19T13:21:05;23.90;76.70
23301;DHT22;11819;51.394;12.340;2022-08-19T13:23:32;23.90;76.70
23301;DHT22;11819;51.394;12.340;2022-08-19T13:26:03;23.90;76.70
23301;DHT22;11819;51.394;12.340;2022-08-19T13:28:30;23.80;76.30
23301;DHT22;11819;51.394;12.340;2022-08-19T13:31:18;23.70;76.30
23301;DHT22;11819;51.394;12.340;2022-08-19T13:34:03;23.60;76.50
23301;DHT22;11819;51.394;12.340;2022-08-19T13:36:29;23.50;76.70
23301;DHT22;11819;51.394;12.340;2022-08-19T13:38:55;23.50;76.90
23301;DHT22;11819;51.394;12.340;2022-08-19T13:41:21;23.50;77.00
23301;DHT22;11819;51.394;12.340;2022-08-19T13:43:47;23.50;77.10
23301;DHT22;11819;51.394;12.340;2022-08-19T13:46:13;23.50;77.20
23301;DHT22;11819;51.394;12.340;2022-08-19T13:48:39;23.50;77.20
23301;DHT22;11819;51.394;12.340;2022-08-19T13:51:07;23.50;77.40
23301;DHT22;11819;51.394;12.340;2022-08-19T13:53:39;23.50;77.40
23301;DHT22;11819;51.394;12.340;2022-08-19T13:56:06;23.40;77.30
23301;DHT22;11819;51.394;12.340;2022-08-19T13:58:31;23.40;78.20
23301;DHT22;11819;51.394;12.340;2022-08-19T14:00:57;23.30;77.20
23301;DHT22;11819;51.394;12.340;2022-08-19T14:03:24;23.30;77.30
23301;DHT22;11819;51.394;12.340;2022-08-19T14:05:50;23.20;77.40
23301;DHT22;11819;51.394;12.340;2022-08-19T14:08:16;23.20;77.40
23301;DHT22;11819;51.394;12.340;2022-08-19T14:10:42;23.20;77.60
23301;DHT22;11819;51.394;12.340;2022-08-19T14:13:12;23.10;77.50
23301;DHT22;11819;51.394;12.340;2022-08-19T14:15:38;23.10;77.50
23301;DHT22;11819;51.394;12.340;2022-08-19T14:18:03;23.10;77.50
23301;DHT22;11819;51.394;12.340;2022-08-19T14:20:29;23.00;77.40
23301;DHT22;11819;51.394;12.340;2022-08-19T14:22:55;23.00;77.50
23301;DHT22;11819;51.394;12.340;2022-08-19T14:25:25;23.00;77.60
23301;DHT22;11819;51.394;12.340;2022-08-19T14:27:51;23.00;77.60
23301;DHT22;11819;51.394;12.340;2022-08-19T14:30:26;23.00;77.60
23301;DHT22;11819;51.394;12.340;2022-08-19T14:32:53;23.00;77.50
23301;DHT22;11819;51.394;12.340;2022-08-19T14:35:20;22.90;77.60
23301;DHT22;11819;51.394;12.340;2022-08-19T14:37:48;22.90;78.40
23301;DHT22;11819;51.394;12.340;2022-08-19T14:40:17;22.90;77.60
23301;DHT22;11819;51.394;12.340;2022-08-19T14:42:43;22.90;77.70
23301;DHT22;11819;51.394;12.340;2022-08-19T14:45:10;22.90;77.80
23301;DHT22;11819;51.394;12.340;2022-08-19T14:47:37;22.90;77.70
23301;DHT22;11819;51.394;12.340;2022-08-19T14:50:04;22.90;77.70
23301;DHT22;11819;51.394;12.340;2022-08-19T14:52:32;22.90;77.70
23301;DHT22;11819;51.394;12.340;2022-08-19T14:54:57;22.90;77.70
23301;DHT22;11819;51.394;12.340;2022-08-19T14:57:23;22.90;77.60
23301;DHT22;11819;51.394;12.340;2022-08-19T14:59:49;22.90;77.40
23301;DHT22;11819;51.394;12.340;2022-08-19T15:02:14;22.90;77.30
23301;DHT22;11819;51.394;12.340;2022-08-19T15:04:40;22.90;77.20
23301;DHT22;11819;51.394;12.340;2022-08-19T15:07:05;22.90;77.30
23301;DHT22;11819;51.394;12.340;2022-08-19T15:09:32;22.90;78.10
23301;DHT22;11819;51.394;12.340;2022-08-19T15:11:58;22.90;76.80
23301;DHT22;11819;51.394;12.340;2022-08-19T15:14:26;22.90;76.50
23301;DHT22;11819;51.394;12.340;2022-08-19T15:16:52;22.90;76.20
23301;DHT22;11819;51.394;12.340;2022-08-19T15:19:18;22.90;76.10
23301;DHT22;11819;51.394;12.340;2022-08-19T15:21:44;22.90;76.10
23301;DHT22;11819;51.394;12.340;2022-08-19T15:24:09;22.90;76.20
23301;DHT22;11819;51.394;12.340;2022-08-19T15:26:35;22.90;76.30
23301;DHT22;11819;51.394;12.340;2022-08-19T15:29:02;22.80;76.40